Terminal Aerodrome Forecast
Issued by NWS

Home | Current Version | Previous Version | Text Only | Print | Product List | Glossary On
Versions: 1 2 3 4 5 6 7 8 9 10 11 12 13 14 15 16 17 18 19 20
000
FTUS43 KIND 311700
TAFLAF
TAF
KLAF 311721Z 3118/0118 33016G25KT P6SM SCT015 OVC025
      TEMPO 3118/3120 5SM -RA BR
     FM312000 34020G35KT P6SM SCT015 OVC025
      TEMPO 3120/3124 4SM -SHRASN
     FM010500 35015G23KT P6SM SCT025 BKN040
     FM011400 01013G20KT P6SM SCT040=

USA.gov is the U.S. government's official web portal to all federal, state and local government web resources and services.